sensor_id;sensor_type;location;lat;lon;timestamp;temperature;humidity
19037;DHT22;9651;49.138;8.900;2022-07-29T00:01:24;22.50;99.90
19037;DHT22;9651;49.138;8.900;2022-07-29T00:05:26;22.50;99.90
19037;DHT22;9651;49.138;8.900;2022-07-29T00:09:28;22.40;99.90
19037;DHT22;9651;49.138;8.900;2022-07-29T00:13:30;22.40;99.90
19037;DHT22;9651;49.138;8.900;2022-07-29T00:17:33;22.30;99.90
19037;DHT22;9651;49.138;8.900;2022-07-29T00:21:35;22.20;99.90
19037;DHT22;9651;49.138;8.900;2022-07-29T00:25:37;22.20;99.90
19037;DHT22;9651;49.138;8.900;2022-07-29T00:29:39;22.10;99.90
19037;DHT22;9651;49.138;8.900;2022-07-29T00:33:42;22.00;99.90
19037;DHT22;9651;49.138;8.900;2022-07-29T00:37:44;22.00;99.90
19037;DHT22;9651;49.138;8.900;2022-07-29T00:41:46;21.90;99.90
19037;DHT22;9651;49.138;8.900;2022-07-29T00:45:49;21.80;99.90
19037;DHT22;9651;49.138;8.900;2022-07-29T00:49:52;21.70;99.90
19037;DHT22;9651;49.138;8.900;2022-07-29T00:53:54;21.60;99.90
19037;DHT22;9651;49.138;8.900;2022-07-29T00:57:57;21.60;99.90
19037;DHT22;9651;49.138;8.900;2022-07-29T01:01:59;21.50;99.90
19037;DHT22;9651;49.138;8.900;2022-07-29T01:06:03;21.50;99.90
19037;DHT22;9651;49.138;8.900;2022-07-29T01:10:07;21.50;99.90
19037;DHT22;9651;49.138;8.900;2022-07-29T01:14:11;21.40;99.90
19037;DHT22;9651;49.138;8.900;2022-07-29T01:18:18;21.30;99.90
19037;DHT22;9651;49.138;8.900;2022-07-29T01:22:31;21.10;99.90
19037;DHT22;9651;49.138;8.900;2022-07-29T01:26:46;21.10;99.90
19037;DHT22;9651;49.138;8.900;2022-07-29T01:30:51;21.20;99.90
19037;DHT22;9651;49.138;8.900;2022-07-29T01:34:58;21.20;99.90
19037;DHT22;9651;49.138;8.900;2022-07-29T01:39:09;21.20;99.90
19037;DHT22;9651;49.138;8.900;2022-07-29T01:43:16;21.10;99.90
19037;DHT22;9651;49.138;8.900;2022-07-29T01:47:25;21.10;99.90
19037;DHT22;9651;49.138;8.900;2022-07-29T01:51:32;21.00;99.90
19037;DHT22;9651;49.138;8.900;2022-07-29T01:55:39;21.00;99.90
19037;DHT22;9651;49.138;8.900;2022-07-29T01:59:43;21.00;99.90
19037;DHT22;9651;49.138;8.900;2022-07-29T02:03:48;21.00;99.90
19037;DHT22;9651;49.138;8.900;2022-07-29T02:07:51;20.90;99.90
19037;DHT22;9651;49.138;8.900;2022-07-29T02:11:54;20.90;99.90
19037;DHT22;9651;49.138;8.900;2022-07-29T02:15:58;20.90;99.90
19037;DHT22;9651;49.138;8.900;2022-07-29T02:20:05;20.80;99.90
19037;DHT22;9651;49.138;8.900;2022-07-29T02:24:08;20.70;99.90
19037;DHT22;9651;49.138;8.900;2022-07-29T02:28:13;20.70;99.90
19037;DHT22;9651;49.138;8.900;2022-07-29T02:32:17;20.60;99.90
19037;DHT22;9651;49.138;8.900;2022-07-29T02:36:22;20.60;99.90
19037;DHT22;9651;49.138;8.900;2022-07-29T02:40:25;20.60;99.90
19037;DHT22;9651;49.138;8.900;2022-07-29T02:44:28;20.60;99.90
19037;DHT22;9651;49.138;8.900;2022-07-29T02:48:36;20.50;99.90
19037;DHT22;9651;49.138;8.900;2022-07-29T02:52:41;20.40;99.90
19037;DHT22;9651;49.138;8.900;2022-07-29T02:56:46;20.50;99.90
19037;DHT22;9651;49.138;8.900;2022-07-29T03:00:51;20.50;99.90
19037;DHT22;9651;49.138;8.900;2022-07-29T03:04:55;20.60;99.90
19037;DHT22;9651;49.138;8.900;2022-07-29T03:09:00;20.60;99.90
19037;DHT22;9651;49.138;8.900;2022-07-29T03:13:02;20.50;99.90
19037;DHT22;9651;49.138;8.900;2022-07-29T03:17:07;20.40;99.90
19037;DHT22;9651;49.138;8.900;2022-07-29T03:21:10;20.40;99.90
19037;DHT22;9651;49.138;8.900;2022-07-29T03:25:16;20.40;99.90
19037;DHT22;9651;49.138;8.900;2022-07-29T03:29:18;20.40;99.90
19037;DHT22;9651;49.138;8.900;2022-07-29T03:33:20;20.40;99.90
19037;DHT22;9651;49.138;8.900;2022-07-29T03:37:22;20.40;99.90
19037;DHT22;9651;49.138;8.900;2022-07-29T03:41:26;20.30;99.90
19037;DHT22;9651;49.138;8.900;2022-07-29T03:45:29;20.30;99.90
19037;DHT22;9651;49.138;8.900;2022-07-29T03:49:32;20.30;99.90
19037;DHT22;9651;49.138;8.900;2022-07-29T03:53:37;20.20;99.90
19037;DHT22;9651;49.138;8.900;2022-07-29T03:57:41;20.20;99.90
19037;DHT22;9651;49.138;8.900;2022-07-29T04:01:43;20.20;99.90
19037;DHT22;9651;49.138;8.900;2022-07-29T04:05:58;20.20;99.90
19037;DHT22;9651;49.138;8.900;2022-07-29T04:10:00;20.20;99.90
19037;DHT22;9651;49.138;8.900;2022-07-29T04:14:03;20.10;99.90
19037;DHT22;9651;49.138;8.900;2022-07-29T04:18:05;20.00;99.90
19037;DHT22;9651;49.138;8.900;2022-07-29T04:22:07;20.00;99.90
19037;DHT22;9651;49.138;8.900;2022-07-29T04:26:09;20.10;99.90
19037;DHT22;9651;49.138;8.900;2022-07-29T04:30:12;20.10;99.90
19037;DHT22;9651;49.138;8.900;2022-07-29T04:34:14;20.30;99.90
19037;DHT22;9651;49.138;8.900;2022-07-29T04:38:16;20.40;99.90
19037;DHT22;9651;49.138;8.900;2022-07-29T04:42:18;20.50;99.90
19037;DHT22;9651;49.138;8.900;2022-07-29T04:46:22;20.70;99.90
19037;DHT22;9651;49.138;8.900;2022-07-29T04:50:24;20.80;99.90
19037;DHT22;9651;49.138;8.900;2022-07-29T04:54:25;20.90;99.90
19037;DHT22;9651;49.138;8.900;2022-07-29T04:58:27;21.10;99.90
19037;DHT22;9651;49.138;8.900;2022-07-29T05:02:31;21.30;99.90
19037;DHT22;9651;49.138;8.900;2022-07-29T05:06:33;21.40;99.90
19037;DHT22;9651;49.138;8.900;2022-07-29T05:10:35;21.60;99.90
19037;DHT22;9651;49.138;8.900;2022-07-29T05:14:38;21.80;99.90
19037;DHT22;9651;49.138;8.900;2022-07-29T05:18:41;21.80;99.90
19037;DHT22;9651;49.138;8.900;2022-07-29T05:22:43;21.90;99.90
19037;DHT22;9651;49.138;8.900;2022-07-29T05:26:45;22.00;99.90
19037;DHT22;9651;49.138;8.900;2022-07-29T05:30:47;22.00;99.90
19037;DHT22;9651;49.138;8.900;2022-07-29T05:34:51;22.40;99.90
19037;DHT22;9651;49.138;8.900;2022-07-29T05:38:53;22.90;99.90
19037;DHT22;9651;49.138;8.900;2022-07-29T05:42:55;23.30;99.90
19037;DHT22;9651;49.138;8.900;2022-07-29T05:46:57;23.60;99.90
19037;DHT22;9651;49.138;8.900;2022-07-29T05:51:01;23.90;99.90
19037;DHT22;9651;49.138;8.900;2022-07-29T05:55:03;24.00;99.90
19037;DHT22;9651;49.138;8.900;2022-07-29T05:59:06;24.30;99.90
19037;DHT22;9651;49.138;8.900;2022-07-29T06:03:08;24.60;99.90
19037;DHT22;9651;49.138;8.900;2022-07-29T06:07:11;25.10;99.90
19037;DHT22;9651;49.138;8.900;2022-07-29T06:11:13;25.20;99.90
19037;DHT22;9651;49.138;8.900;2022-07-29T06:15:15;25.10;99.90
19037;DHT22;9651;49.138;8.900;2022-07-29T06:19:17;25.50;99.90
19037;DHT22;9651;49.138;8.900;2022-07-29T06:23:20;25.90;99.90
19037;DHT22;9651;49.138;8.900;2022-07-29T06:27:22;26.20;99.90
19037;DHT22;9651;49.138;8.900;2022-07-29T06:31:24;26.40;99.90
19037;DHT22;9651;49.138;8.900;2022-07-29T06:35:26;26.50;99.90
19037;DHT22;9651;49.138;8.900;2022-07-29T06:39:29;26.80;99.90
19037;DHT22;9651;49.138;8.900;2022-07-29T06:43:33;27.40;99.90
19037;DHT22;9651;49.138;8.900;2022-07-29T06:47:38;27.80;99.90
19037;DHT22;9651;49.138;8.900;2022-07-29T06:51:40;27.40;99.90
19037;DHT22;9651;49.138;8.900;2022-07-29T06:55:43;26.90;99.90
19037;DHT22;9651;49.138;8.900;2022-07-29T06:59:45;26.90;99.90
19037;DHT22;9651;49.138;8.900;2022-07-29T07:03:47;26.40;99.90
19037;DHT22;9651;49.138;8.900;2022-07-29T07:07:49;26.10;99.90
19037;DHT22;9651;49.138;8.900;2022-07-29T07:11:52;26.30;99.90
19037;DHT22;9651;49.138;8.900;2022-07-29T07:15:54;26.50;99.90
19037;DHT22;9651;49.138;8.900;2022-07-29T07:19:56;26.90;99.90
19037;DHT22;9651;49.138;8.900;2022-07-29T07:23:58;27.40;99.90
19037;DHT22;9651;49.138;8.900;2022-07-29T07:28:02;27.60;99.90
19037;DHT22;9651;49.138;8.900;2022-07-29T07:32:04;27.70;99.80
19037;DHT22;9651;49.138;8.900;2022-07-29T07:36:06;28.10;99.00
19037;DHT22;9651;49.138;8.900;2022-07-29T07:40:11;28.80;97.80
19037;DHT22;9651;49.138;8.900;2022-07-29T07:44:15;29.30;96.60
19037;DHT22;9651;49.138;8.900;2022-07-29T07:48:17;29.80;95.30
19037;DHT22;9651;49.138;8.900;2022-07-29T07:52:21;30.50;93.70
19037;DHT22;9651;49.138;8.900;2022-07-29T07:56:23;30.80;92.90
19037;DHT22;9651;49.138;8.900;2022-07-29T08:00:26;30.70;90.50
19037;DHT22;9651;49.138;8.900;2022-07-29T08:04:28;30.00;90.80
19037;DHT22;9651;49.138;8.900;2022-07-29T08:08:31;29.70;91.30
19037;DHT22;9651;49.138;8.900;2022-07-29T08:12:33;29.70;91.60
19037;DHT22;9651;49.138;8.900;2022-07-29T08:16:36;30.30;91.20
19037;DHT22;9651;49.138;8.900;2022-07-29T08:20:38;30.60;90.70
19037;DHT22;9651;49.138;8.900;2022-07-29T08:24:40;30.70;90.60
19037;DHT22;9651;49.138;8.900;2022-07-29T08:28:47;30.90;90.10
19037;DHT22;9651;49.138;8.900;2022-07-29T08:32:52;31.40;88.50
19037;DHT22;9651;49.138;8.900;2022-07-29T08:36:54;31.40;88.50
19037;DHT22;9651;49.138;8.900;2022-07-29T08:40:56;31.40;88.30
19037;DHT22;9651;49.138;8.900;2022-07-29T08:44:59;31.80;87.90
19037;DHT22;9651;49.138;8.900;2022-07-29T08:49:03;31.00;88.80
19037;DHT22;9651;49.138;8.900;2022-07-29T08:53:06;30.80;89.30
19037;DHT22;9651;49.138;8.900;2022-07-29T08:57:09;31.20;89.30
19037;DHT22;9651;49.138;8.900;2022-07-29T09:01:14;32.00;88.60
19037;DHT22;9651;49.138;8.900;2022-07-29T09:05:19;32.00;88.60
19037;DHT22;9651;49.138;8.900;2022-07-29T09:09:21;31.90;88.50
19037;DHT22;9651;49.138;8.900;2022-07-29T09:13:23;33.30;87.40
19037;DHT22;9651;49.138;8.900;2022-07-29T09:17:42;34.00;84.30
19037;DHT22;9651;49.138;8.900;2022-07-29T09:21:46;34.50;83.20
19037;DHT22;9651;49.138;8.900;2022-07-29T09:26:05;35.10;79.80
19037;DHT22;9651;49.138;8.900;2022-07-29T09:30:09;34.40;79.50
19037;DHT22;9651;49.138;8.900;2022-07-29T09:34:13;34.40;80.60
19037;DHT22;9651;49.138;8.900;2022-07-29T09:38:17;35.20;77.60
19037;DHT22;9651;49.138;8.900;2022-07-29T09:42:27;34.80;77.90
19037;DHT22;9651;49.138;8.900;2022-07-29T09:46:29;34.90;79.10
19037;DHT22;9651;49.138;8.900;2022-07-29T09:50:35;35.60;77.10
19037;DHT22;9651;49.138;8.900;2022-07-29T09:54:39;35.80;74.60
19037;DHT22;9651;49.138;8.900;2022-07-29T09:58:41;35.60;74.30
19037;DHT22;9651;49.138;8.900;2022-07-29T10:02:44;36.80;72.30
19037;DHT22;9651;49.138;8.900;2022-07-29T10:06:56;37.20;68.80
19037;DHT22;9651;49.138;8.900;2022-07-29T10:11:09;36.90;66.60
19037;DHT22;9651;49.138;8.900;2022-07-29T10:15:12;36.60;66.70
19037;DHT22;9651;49.138;8.900;2022-07-29T10:19:14;37.00;66.60
19037;DHT22;9651;49.138;8.900;2022-07-29T10:23:16;37.20;64.80
19037;DHT22;9651;49.138;8.900;2022-07-29T10:27:19;37.60;63.80
19037;DHT22;9651;49.138;8.900;2022-07-29T10:31:27;38.30;63.10
19037;DHT22;9651;49.138;8.900;2022-07-29T10:35:44;38.60;60.90
19037;DHT22;9651;49.138;8.900;2022-07-29T10:39:53;38.00;60.90
19037;DHT22;9651;49.138;8.900;2022-07-29T10:44:00;38.10;61.10
19037;DHT22;9651;49.138;8.900;2022-07-29T10:48:03;39.20;59.50
19037;DHT22;9651;49.138;8.900;2022-07-29T10:52:07;39.50;58.20
19037;DHT22;9651;49.138;8.900;2022-07-29T10:56:23;39.90;57.20
19037;DHT22;9651;49.138;8.900;2022-07-29T11:00:29;40.40;56.50
19037;DHT22;9651;49.138;8.900;2022-07-29T11:04:59;41.30;54.80
19037;DHT22;9651;49.138;8.900;2022-07-29T11:09:17;42.40;53.20
19037;DHT22;9651;49.138;8.900;2022-07-29T11:13:45;42.60;52.30
19037;DHT22;9651;49.138;8.900;2022-07-29T11:18:07;42.00;51.80
19037;DHT22;9651;49.138;8.900;2022-07-29T11:22:10;42.20;51.30
19037;DHT22;9651;49.138;8.900;2022-07-29T11:26:17;43.10;50.40
19037;DHT22;9651;49.138;8.900;2022-07-29T11:30:48;43.40;49.30
19037;DHT22;9651;49.138;8.900;2022-07-29T11:35:13;43.60;48.20
19037;DHT22;9651;49.138;8.900;2022-07-29T11:39:28;43.10;48.40
19037;DHT22;9651;49.138;8.900;2022-07-29T11:43:48;42.90;47.70
19037;DHT22;9651;49.138;8.900;2022-07-29T11:47:53;42.80;48.00
19037;DHT22;9651;49.138;8.900;2022-07-29T11:51:57;42.80;47.70
19037;DHT22;9651;49.138;8.900;2022-07-29T11:56:01;42.50;47.90
19037;DHT22;9651;49.138;8.900;2022-07-29T12:00:04;42.90;47.30
19037;DHT22;9651;49.138;8.900;2022-07-29T12:04:08;43.70;46.80
19037;DHT22;9651;49.138;8.900;2022-07-29T12:08:13;43.30;46.80
19037;DHT22;9651;49.138;8.900;2022-07-29T12:12:16;42.50;47.10
19037;DHT22;9651;49.138;8.900;2022-07-29T12:16:18;41.90;47.40
19037;DHT22;9651;49.138;8.900;2022-07-29T12:20:25;42.20;47.70
19037;DHT22;9651;49.138;8.900;2022-07-29T12:24:42;41.20;47.60
19037;DHT22;9651;49.138;8.900;2022-07-29T12:28:44;40.50;47.90
19037;DHT22;9651;49.138;8.900;2022-07-29T12:32:47;39.50;48.50
19037;DHT22;9651;49.138;8.900;2022-07-29T12:36:50;39.10;48.50
19037;DHT22;9651;49.138;8.900;2022-07-29T12:40:54;39.60;48.10
19037;DHT22;9651;49.138;8.900;2022-07-29T12:44:56;39.30;48.60
19037;DHT22;9651;49.138;8.900;2022-07-29T12:48:58;38.50;49.30
19037;DHT22;9651;49.138;8.900;2022-07-29T12:53:10;37.10;49.40
19037;DHT22;9651;49.138;8.900;2022-07-29T12:57:15;36.40;50.90
19037;DHT22;9651;49.138;8.900;2022-07-29T13:01:18;36.10;51.30
19037;DHT22;9651;49.138;8.900;2022-07-29T13:05:20;35.50;52.40
19037;DHT22;9651;49.138;8.900;2022-07-29T13:09:22;34.90;52.80
19037;DHT22;9651;49.138;8.900;2022-07-29T13:13:25;34.60;54.20
19037;DHT22;9651;49.138;8.900;2022-07-29T13:17:27;34.40;54.30
19037;DHT22;9651;49.138;8.900;2022-07-29T13:21:29;34.70;54.20
19037;DHT22;9651;49.138;8.900;2022-07-29T13:25:32;35.00;54.10
19037;DHT22;9651;49.138;8.900;2022-07-29T13:29:36;35.30;54.10
19037;DHT22;9651;49.138;8.900;2022-07-29T13:33:40;35.20;53.90
19037;DHT22;9651;49.138;8.900;2022-07-29T13:37:42;34.70;54.10
19037;DHT22;9651;49.138;8.900;2022-07-29T13:41:44;34.30;54.40
19037;DHT22;9651;49.138;8.900;2022-07-29T13:45:47;34.00;54.40
19037;DHT22;9651;49.138;8.900;2022-07-29T13:49:49;33.80;54.90
19037;DHT22;9651;49.138;8.900;2022-07-29T13:53:52;33.70;54.80
19037;DHT22;9651;49.138;8.900;2022-07-29T13:57:54;33.70;55.30
19037;DHT22;9651;49.138;8.900;2022-07-29T14:01:57;34.00;54.70
19037;DHT22;9651;49.138;8.900;2022-07-29T14:05:59;34.30;55.00
19037;DHT22;9651;49.138;8.900;2022-07-29T14:10:01;34.40;54.80
19037;DHT22;9651;49.138;8.900;2022-07-29T14:14:03;34.40;55.30
19037;DHT22;9651;49.138;8.900;2022-07-29T14:18:07;34.40;55.00
19037;DHT22;9651;49.138;8.900;2022-07-29T14:22:09;34.10;55.20
19037;DHT22;9651;49.138;8.900;2022-07-29T14:26:11;34.30;55.20
19037;DHT22;9651;49.138;8.900;2022-07-29T14:30:13;34.30;55.00
19037;DHT22;9651;49.138;8.900;2022-07-29T14:34:16;34.30;54.60
19037;DHT22;9651;49.138;8.900;2022-07-29T14:38:18;34.20;54.60
19037;DHT22;9651;49.138;8.900;2022-07-29T14:42:20;33.90;54.60
19037;DHT22;9651;49.138;8.900;2022-07-29T14:46:22;33.70;53.90
19037;DHT22;9651;49.138;8.900;2022-07-29T14:50:25;33.70;54.20
19037;DHT22;9651;49.138;8.900;2022-07-29T14:54:27;33.70;53.40
19037;DHT22;9651;49.138;8.900;2022-07-29T14:58:29;34.30;53.80
19037;DHT22;9651;49.138;8.900;2022-07-29T15:02:31;35.00;52.60
19037;DHT22;9651;49.138;8.900;2022-07-29T15:06:34;34.90;52.30
19037;DHT22;9651;49.138;8.900;2022-07-29T15:10:36;34.80;52.00
19037;DHT22;9651;49.138;8.900;2022-07-29T15:14:39;33.90;52.20
19037;DHT22;9651;49.138;8.900;2022-07-29T15:18:40;33.70;52.20
19037;DHT22;9651;49.138;8.900;2022-07-29T15:22:44;33.50;52.20
19037;DHT22;9651;49.138;8.900;2022-07-29T15:26:46;33.50;52.20
19037;DHT22;9651;49.138;8.900;2022-07-29T15:30:49;33.00;52.20
19037;DHT22;9651;49.138;8.900;2022-07-29T15:34:50;33.00;52.10
19037;DHT22;9651;49.138;8.900;2022-07-29T15:38:54;32.90;52.20
19037;DHT22;9651;49.138;8.900;2022-07-29T15:42:56;32.90;52.50
19037;DHT22;9651;49.138;8.900;2022-07-29T15:47:01;33.30;51.60
19037;DHT22;9651;49.138;8.900;2022-07-29T15:51:06;33.80;50.70
19037;DHT22;9651;49.138;8.900;2022-07-29T15:55:10;33.30;49.70
19037;DHT22;9651;49.138;8.900;2022-07-29T15:59:12;33.20;49.80
19037;DHT22;9651;49.138;8.900;2022-07-29T16:03:14;33.30;49.60
19037;DHT22;9651;49.138;8.900;2022-07-29T16:07:16;33.90;49.20
19037;DHT22;9651;49.138;8.900;2022-07-29T16:11:19;34.50;49.00
19037;DHT22;9651;49.138;8.900;2022-07-29T16:15:21;35.40;48.70
19037;DHT22;9651;49.138;8.900;2022-07-29T16:19:23;35.70;48.00
19037;DHT22;9651;49.138;8.900;2022-07-29T16:23:25;35.60;48.00
19037;DHT22;9651;49.138;8.900;2022-07-29T16:27:28;35.40;47.50
19037;DHT22;9651;49.138;8.900;2022-07-29T16:31:33;34.70;47.50
19037;DHT22;9651;49.138;8.900;2022-07-29T16:35:35;34.60;47.50
19037;DHT22;9651;49.138;8.900;2022-07-29T16:39:39;34.50;47.80
19037;DHT22;9651;49.138;8.900;2022-07-29T16:43:43;34.60;48.00
19037;DHT22;9651;49.138;8.900;2022-07-29T16:47:45;34.60;48.10
19037;DHT22;9651;49.138;8.900;2022-07-29T16:51:47;34.90;48.30
19037;DHT22;9651;49.138;8.900;2022-07-29T16:55:48;34.60;48.00
19037;DHT22;9651;49.138;8.900;2022-07-29T16:59:52;33.90;48.30
19037;DHT22;9651;49.138;8.900;2022-07-29T17:03:54;33.50;48.90
19037;DHT22;9651;49.138;8.900;2022-07-29T17:08:08;33.10;49.20
19037;DHT22;9651;49.138;8.900;2022-07-29T17:12:09;32.60;49.50
19037;DHT22;9651;49.138;8.900;2022-07-29T17:16:13;32.30;50.00
19037;DHT22;9651;49.138;8.900;2022-07-29T17:20:16;32.30;50.10
19037;DHT22;9651;49.138;8.900;2022-07-29T17:24:18;32.30;50.10
19037;DHT22;9651;49.138;8.900;2022-07-29T17:28:20;31.80;50.50
19037;DHT22;9651;49.138;8.900;2022-07-29T17:32:23;31.40;51.00
19037;DHT22;9651;49.138;8.900;2022-07-29T17:36:25;31.20;51.50
19037;DHT22;9651;49.138;8.900;2022-07-29T17:40:27;31.00;51.50
19037;DHT22;9651;49.138;8.900;2022-07-29T17:44:29;30.60;51.90
19037;DHT22;9651;49.138;8.900;2022-07-29T17:48:33;30.50;52.10
19037;DHT22;9651;49.138;8.900;2022-07-29T17:52:35;30.50;51.90
19037;DHT22;9651;49.138;8.900;2022-07-29T17:56:38;30.40;51.70
19037;DHT22;9651;49.138;8.900;2022-07-29T18:00:41;30.40;52.10
19037;DHT22;9651;49.138;8.900;2022-07-29T18:04:44;30.30;51.80
19037;DHT22;9651;49.138;8.900;2022-07-29T18:08:46;30.20;52.00
19037;DHT22;9651;49.138;8.900;2022-07-29T18:12:48;30.30;51.80
19037;DHT22;9651;49.138;8.900;2022-07-29T18:16:50;30.30;51.60
19037;DHT22;9651;49.138;8.900;2022-07-29T18:20:53;30.20;51.40
19037;DHT22;9651;49.138;8.900;2022-07-29T18:24:55;30.00;51.20
19037;DHT22;9651;49.138;8.900;2022-07-29T18:28:57;29.80;51.30
19037;DHT22;9651;49.138;8.900;2022-07-29T18:32:59;29.60;51.50
19037;DHT22;9651;49.138;8.900;2022-07-29T18:37:02;29.40;52.00
19037;DHT22;9651;49.138;8.900;2022-07-29T18:41:04;29.30;52.70
19037;DHT22;9651;49.138;8.900;2022-07-29T18:45:07;29.20;52.40
19037;DHT22;9651;49.138;8.900;2022-07-29T18:49:09;28.90;57.30
19037;DHT22;9651;49.138;8.900;2022-07-29T18:53:13;28.60;59.60
19037;DHT22;9651;49.138;8.900;2022-07-29T18:57:14;28.20;61.60
19037;DHT22;9651;49.138;8.900;2022-07-29T19:01:16;27.70;63.20
19037;DHT22;9651;49.138;8.900;2022-07-29T19:05:19;27.20;64.80
19037;DHT22;9651;49.138;8.900;2022-07-29T19:09:22;26.70;66.50
19037;DHT22;9651;49.138;8.900;2022-07-29T19:13:24;26.50;67.20
19037;DHT22;9651;49.138;8.900;2022-07-29T19:17:26;26.30;68.00
19037;DHT22;9651;49.138;8.900;2022-07-29T19:21:28;26.00;69.60
19037;DHT22;9651;49.138;8.900;2022-07-29T19:25:31;25.70;70.20
19037;DHT22;9651;49.138;8.900;2022-07-29T19:29:34;25.70;71.10
19037;DHT22;9651;49.138;8.900;2022-07-29T19:33:36;25.30;71.40
19037;DHT22;9651;49.138;8.900;2022-07-29T19:37:38;25.20;72.00
19037;DHT22;9651;49.138;8.900;2022-07-29T19:41:41;25.00;72.90
19037;DHT22;9651;49.138;8.900;2022-07-29T19:45:43;24.80;73.90
19037;DHT22;9651;49.138;8.900;2022-07-29T19:49:45;24.40;75.50
19037;DHT22;9651;49.138;8.900;2022-07-29T19:53:47;24.30;76.10
19037;DHT22;9651;49.138;8.900;2022-07-29T19:57:51;24.40;75.60
19037;DHT22;9651;49.138;8.900;2022-07-29T20:01:53;24.50;76.30
19037;DHT22;9651;49.138;8.900;2022-07-29T20:05:55;24.50;76.50
19037;DHT22;9651;49.138;8.900;2022-07-29T20:09:57;24.30;77.20
19037;DHT22;9651;49.138;8.900;2022-07-29T20:14:01;24.20;78.30
19037;DHT22;9651;49.138;8.900;2022-07-29T20:18:05;24.10;78.60
19037;DHT22;9651;49.138;8.900;2022-07-29T20:22:07;24.10;79.40
19037;DHT22;9651;49.138;8.900;2022-07-29T20:26:09;24.00;80.30
19037;DHT22;9651;49.138;8.900;2022-07-29T20:30:12;24.00;80.30
19037;DHT22;9651;49.138;8.900;2022-07-29T20:34:14;24.00;81.10
19037;DHT22;9651;49.138;8.900;2022-07-29T20:38:16;23.70;82.00
19037;DHT22;9651;49.138;8.900;2022-07-29T20:42:18;23.50;82.70
19037;DHT22;9651;49.138;8.900;2022-07-29T20:46:21;23.70;82.70
19037;DHT22;9651;49.138;8.900;2022-07-29T20:50:23;23.80;82.70
19037;DHT22;9651;49.138;8.900;2022-07-29T20:54:25;23.80;83.20
19037;DHT22;9651;49.138;8.900;2022-07-29T20:58:27;23.80;83.30
19037;DHT22;9651;49.138;8.900;2022-07-29T21:02:30;23.80;83.30
19037;DHT22;9651;49.138;8.900;2022-07-29T21:06:33;23.90;83.70
19037;DHT22;9651;49.138;8.900;2022-07-29T21:10:35;23.90;84.10
19037;DHT22;9651;49.138;8.900;2022-07-29T21:14:37;23.90;84.40
19037;DHT22;9651;49.138;8.900;2022-07-29T21:18:50;23.90;85.10
19037;DHT22;9651;49.138;8.900;2022-07-29T21:22:53;23.80;85.50
19037;DHT22;9651;49.138;8.900;2022-07-29T21:26:55;23.80;86.10
19037;DHT22;9651;49.138;8.900;2022-07-29T21:31:17;23.70;86.20
19037;DHT22;9651;49.138;8.900;2022-07-29T21:35:20;23.70;86.90
19037;DHT22;9651;49.138;8.900;2022-07-29T21:39:23;23.60;86.90
19037;DHT22;9651;49.138;8.900;2022-07-29T21:43:25;23.60;87.20
19037;DHT22;9651;49.138;8.900;2022-07-29T21:47:28;23.50;87.70
19037;DHT22;9651;49.138;8.900;2022-07-29T21:51:31;23.50;88.20
19037;DHT22;9651;49.138;8.900;2022-07-29T21:55:33;23.40;89.20
19037;DHT22;9651;49.138;8.900;2022-07-29T21:59:35;23.30;90.10
19037;DHT22;9651;49.138;8.900;2022-07-29T22:03:37;23.20;90.40
19037;DHT22;9651;49.138;8.900;2022-07-29T22:07:40;23.10;90.70
19037;DHT22;9651;49.138;8.900;2022-07-29T22:11:42;23.00;91.20
19037;DHT22;9651;49.138;8.900;2022-07-29T22:15:44;22.90;91.70
19037;DHT22;9651;49.138;8.900;2022-07-29T22:19:46;22.90;92.30
19037;DHT22;9651;49.138;8.900;2022-07-29T22:23:49;22.80;92.70
19037;DHT22;9651;49.138;8.900;2022-07-29T22:27:51;22.70;93.30
19037;DHT22;9651;49.138;8.900;2022-07-29T22:31:53;22.60;93.70
19037;DHT22;9651;49.138;8.900;2022-07-29T22:35:55;22.60;94.20
19037;DHT22;9651;49.138;8.900;2022-07-29T22:39:59;22.50;94.90
19037;DHT22;9651;49.138;8.900;2022-07-29T22:44:01;22.40;95.60
19037;DHT22;9651;49.138;8.900;2022-07-29T22:48:03;22.20;96.20
19037;DHT22;9651;49.138;8.900;2022-07-29T22:52:05;22.10;97.00
19037;DHT22;9651;49.138;8.900;2022-07-29T22:56:10;22.00;97.60
19037;DHT22;9651;49.138;8.900;2022-07-29T23:00:12;22.00;98.50
19037;DHT22;9651;49.138;8.900;2022-07-29T23:04:14;22.00;98.90
19037;DHT22;9651;49.138;8.900;2022-07-29T23:08:17;21.80;99.90
19037;DHT22;9651;49.138;8.900;2022-07-29T23:12:20;21.60;99.90
19037;DHT22;9651;49.138;8.900;2022-07-29T23:16:22;21.60;99.90
19037;DHT22;9651;49.138;8.900;2022-07-29T23:20:24;21.50;99.90
19037;DHT22;9651;49.138;8.900;2022-07-29T23:24:26;21.30;99.90
19037;DHT22;9651;49.138;8.900;2022-07-29T23:28:29;21.20;99.90
19037;DHT22;9651;49.138;8.900;2022-07-29T23:32:31;20.90;99.90
19037;DHT22;9651;49.138;8.900;2022-07-29T23:36:33;20.70;99.90
19037;DHT22;9651;49.138;8.900;2022-07-29T23:40:35;20.80;99.90
19037;DHT22;9651;49.138;8.900;2022-07-29T23:44:39;20.80;99.90
19037;DHT22;9651;49.138;8.900;2022-07-29T23:48:41;20.80;99.90
19037;DHT22;9651;49.138;8.900;2022-07-29T23:52:43;20.70;99.90
19037;DHT22;9651;49.138;8.900;2022-07-29T23:56:45;20.70;99.90
